createdAt,value
2022-08-21T00:00:07.394Z,45.19
2022-08-21T00:02:46.013Z,45.56
2022-08-21T00:05:13.166Z,45.71
2022-08-21T00:07:40.215Z,46.00
2022-08-21T00:10:07.579Z,45.99
2022-08-21T00:12:34.681Z,46.06
2022-08-21T00:15:01.768Z,46.01
2022-08-21T00:17:28.968Z,46.32
2022-08-21T00:19:55.958Z,46.17
2022-08-21T00:22:22.870Z,46.26
2022-08-21T00:24:49.827Z,46.73
2022-08-21T00:27:16.848Z,46.57
2022-08-21T00:29:43.967Z,46.74
2022-08-21T00:32:10.985Z,47.10
2022-08-21T00:34:38.074Z,47.16
2022-08-21T00:37:05.595Z,47.02
2022-08-21T00:39:32.600Z,46.60
2022-08-21T00:41:59.544Z,46.51
2022-08-21T00:44:26.656Z,47.09
2022-08-21T00:46:53.900Z,46.63
2022-08-21T00:49:21.464Z,46.75
2022-08-21T00:51:55.054Z,46.44
2022-08-21T00:54:23.678Z,47.03
2022-08-21T00:56:54.233Z,46.92
2022-08-21T00:59:23.011Z,46.77
2022-08-21T01:01:51.274Z,47.14
2022-08-21T01:04:18.739Z,47.43
2022-08-21T01:06:45.783Z,47.17
2022-08-21T01:09:13.613Z,47.75
2022-08-21T01:11:41.213Z,48.01
2022-08-21T01:14:08.287Z,47.76
2022-08-21T01:16:35.591Z,47.46
2022-08-21T01:19:02.584Z,47.84
2022-08-21T01:21:29.594Z,47.72
2022-08-21T01:23:57.366Z,47.97
2022-08-21T01:26:34.138Z,47.97
2022-08-21T01:29:20.894Z,48.01
2022-08-21T01:31:47.893Z,47.87
2022-08-21T01:34:17.914Z,47.67
2022-08-21T01:36:46.081Z,47.84
2022-08-21T01:39:13.542Z,47.87
2022-08-21T01:41:40.635Z,47.79
2022-08-21T01:44:07.823Z,47.85
2022-08-21T01:46:35.496Z,48.00
2022-08-21T01:49:02.455Z,48.42
2022-08-21T01:51:29.644Z,48.34
2022-08-21T01:53:56.486Z,47.90
2022-08-21T01:56:23.778Z,48.39
2022-08-21T01:58:51.513Z,48.05
2022-08-21T02:01:18.731Z,48.44
2022-08-21T02:03:46.104Z,48.43
2022-08-21T02:06:16.706Z,48.86
2022-08-21T02:08:43.576Z,48.94
2022-08-21T02:11:12.682Z,48.94
2022-08-21T02:13:39.718Z,48.76
2022-08-21T02:16:08.312Z,49.22
2022-08-21T02:18:36.136Z,49.26
2022-08-21T02:21:03.847Z,49.33
2022-08-21T02:23:31.276Z,49.76
2022-08-21T02:25:59.163Z,49.52
2022-08-21T02:28:26.407Z,49.30
2022-08-21T02:30:55.588Z,49.30
2022-08-21T02:33:23.064Z,49.37
2022-08-21T02:35:51.179Z,49.46
2022-08-21T02:38:21.368Z,49.58
2022-08-21T02:40:50.959Z,49.54
2022-08-21T02:43:19.777Z,50.02
2022-08-21T02:45:49.211Z,49.94
2022-08-21T02:48:18.047Z,49.67
2022-08-21T02:50:46.889Z,49.66
2022-08-21T02:53:17.690Z,49.61
2022-08-21T02:55:49.225Z,50.21
2022-08-21T02:58:17.463Z,49.98
2022-08-21T03:00:45.349Z,50.14
2022-08-21T03:03:13.651Z,49.82
2022-08-21T03:05:40.793Z,50.17
2022-08-21T03:08:11.728Z,49.97
2022-08-21T03:10:44.289Z,50.20
2022-08-21T03:13:12.158Z,50.29
2022-08-21T03:15:39.698Z,50.45
2022-08-21T03:18:08.054Z,50.50
2022-08-21T03:20:36.289Z,50.58
2022-08-21T03:23:04.555Z,50.85
2022-08-21T03:25:41.113Z,51.23
2022-08-21T03:28:12.988Z,51.36
2022-08-21T03:30:48.137Z,51.19
2022-08-21T03:33:16.121Z,51.23
2022-08-21T03:35:45.761Z,51.26
2022-08-21T03:38:14.307Z,51.53
2022-08-21T03:40:42.938Z,51.82
2022-08-21T03:43:10.758Z,51.50
2022-08-21T03:45:38.871Z,51.59
2022-08-21T03:48:06.776Z,51.72
2022-08-21T03:50:40.955Z,51.84
2022-08-21T03:53:17.099Z,51.97
2022-08-21T03:55:48.045Z,51.59
2022-08-21T03:58:17.376Z,52.28
2022-08-21T04:00:49.595Z,52.40
2022-08-21T04:03:17.400Z,52.22
2022-08-21T04:05:46.492Z,52.43
2022-08-21T04:08:14.663Z,52.41
2022-08-21T04:10:46.557Z,52.17
2022-08-21T04:13:13.813Z,52.28
2022-08-21T04:15:42.109Z,52.31
2022-08-21T04:18:09.667Z,52.11
2022-08-21T04:20:36.757Z,52.15
2022-08-21T04:23:04.607Z,52.42
2022-08-21T04:25:32.137Z,52.07
2022-08-21T04:27:59.549Z,52.46
2022-08-21T04:30:28.301Z,52.44
2022-08-21T04:32:57.283Z,52.23
2022-08-21T04:35:25.688Z,52.23
2022-08-21T04:37:52.941Z,52.38
2022-08-21T04:40:20.959Z,52.19
2022-08-21T04:42:50.872Z,52.37
2022-08-21T04:45:37.119Z,52.49
2022-08-21T04:48:06.412Z,52.33
2022-08-21T04:50:40.284Z,52.42
2022-08-21T04:53:08.837Z,52.55
2022-08-21T04:55:36.072Z,52.41
2022-08-21T04:58:03.181Z,52.24
2022-08-21T05:00:30.604Z,52.67
2022-08-21T05:03:00.526Z,52.57
2022-08-21T05:05:30.242Z,52.67
2022-08-21T05:07:58.821Z,53.38
2022-08-21T05:10:27.045Z,53.10
2022-08-21T05:12:54.744Z,52.86
2022-08-21T05:15:22.169Z,52.52
2022-08-21T05:17:53.751Z,53.07
2022-08-21T05:20:28.180Z,53.21
2022-08-21T05:22:55.202Z,52.97
2022-08-21T05:25:23.716Z,53.22
2022-08-21T05:27:52.114Z,53.31
2022-08-21T05:30:22.881Z,52.96
2022-08-21T05:32:49.908Z,53.03
2022-08-21T05:35:16.857Z,53.33
2022-08-21T05:37:43.881Z,53.64
2022-08-21T05:40:21.423Z,53.48
2022-08-21T05:42:55.385Z,53.27
2022-08-21T05:45:41.342Z,53.14
2022-08-21T05:48:10.947Z,53.43
2022-08-21T05:50:39.410Z,53.35
2022-08-21T05:53:07.867Z,53.24
2022-08-21T05:55:37.308Z,53.16
2022-08-21T05:58:07.770Z,52.91
2022-08-21T06:00:37.652Z,53.05
2022-08-21T06:03:04.905Z,53.00
2022-08-21T06:05:36.615Z,52.80
2022-08-21T06:08:05.321Z,52.88
2022-08-21T06:10:34.930Z,52.53
2022-08-21T06:13:01.880Z,52.54
2022-08-21T06:15:28.948Z,52.58
2022-08-21T06:17:56.120Z,52.40
2022-08-21T06:20:23.293Z,52.49
2022-08-21T06:22:50.478Z,52.59
2022-08-21T06:25:17.398Z,52.55
2022-08-21T06:27:44.468Z,52.74
2022-08-21T06:30:11.776Z,52.73
2022-08-21T06:32:39.120Z,52.75
2022-08-21T06:35:06.476Z,52.68
2022-08-21T06:37:34.198Z,52.43
2022-08-21T06:40:01.389Z,52.76
2022-08-21T06:42:31.330Z,52.79
2022-08-21T06:44:58.752Z,53.18
2022-08-21T06:47:25.814Z,53.19
2022-08-21T06:49:53.580Z,53.22
2022-08-21T06:52:20.561Z,53.09
2022-08-21T06:54:47.536Z,53.61
2022-08-21T06:57:14.704Z,53.35
2022-08-21T06:59:41.731Z,53.14
2022-08-21T07:02:09.122Z,53.26
2022-08-21T07:04:36.477Z,53.71
2022-08-21T07:07:04.029Z,53.02
2022-08-21T07:09:31.266Z,53.08
2022-08-21T07:11:58.748Z,53.58
2022-08-21T07:14:26.104Z,53.07
2022-08-21T07:16:53.250Z,52.97
2022-08-21T07:19:20.685Z,53.63
2022-08-21T07:21:47.971Z,52.62
2022-08-21T07:24:15.486Z,52.98
2022-08-21T07:26:42.459Z,52.60
2022-08-21T07:29:09.545Z,52.75
2022-08-21T07:31:36.425Z,52.28
2022-08-21T07:34:03.674Z,52.35
2022-08-21T07:36:30.789Z,52.21
2022-08-21T07:39:00.413Z,52.10
2022-08-21T07:41:29.882Z,52.20
2022-08-21T07:43:58.525Z,51.47
2022-08-21T07:46:26.058Z,51.50
2022-08-21T07:48:53.647Z,51.58
2022-08-21T07:51:23.257Z,50.96
2022-08-21T07:53:55.535Z,50.44
2022-08-21T07:56:22.699Z,50.50
2022-08-21T07:58:52.788Z,50.46
2022-08-21T08:01:20.210Z,51.04
2022-08-21T08:03:47.517Z,50.75
2022-08-21T08:06:16.528Z,50.76
2022-08-21T08:08:44.163Z,50.13
2022-08-21T08:11:12.019Z,50.28
2022-08-21T08:13:40.262Z,49.65
2022-08-21T08:16:07.675Z,50.02
2022-08-21T08:18:34.628Z,49.00
2022-08-21T08:21:01.863Z,48.62
2022-08-21T08:23:29.082Z,49.19
2022-08-21T08:25:56.086Z,49.04
2022-08-21T08:28:23.307Z,48.27
2022-08-21T08:30:50.903Z,48.20
2022-08-21T08:33:18.169Z,48.90
2022-08-21T08:35:46.685Z,48.80
2022-08-21T08:38:16.873Z,48.49
2022-08-21T08:40:52.574Z,48.23
2022-08-21T08:43:20.051Z,48.57
2022-08-21T08:45:49.697Z,48.65
2022-08-21T08:48:21.136Z,48.29
2022-08-21T08:50:50.921Z,48.36
2022-08-21T08:53:41.165Z,48.53
2022-08-21T08:56:08.663Z,48.08
2022-08-21T08:58:38.920Z,48.54
2022-08-21T09:01:11.358Z,49.20
2022-08-21T09:03:40.280Z,49.77
2022-08-21T09:06:25.849Z,49.07
2022-08-21T09:09:16.059Z,48.34
2022-08-21T09:11:47.214Z,48.18
2022-08-21T09:14:34.796Z,47.14
2022-08-21T09:17:20.768Z,47.64
2022-08-21T09:20:11.498Z,46.69
2022-08-21T09:22:57.490Z,46.70
2022-08-21T09:25:26.851Z,46.04
2022-08-21T09:27:54.213Z,46.48
2022-08-21T09:30:25.507Z,44.80
2022-08-21T09:32:52.512Z,45.25
2022-08-21T09:35:21.493Z,45.82
2022-08-21T09:38:07.492Z,46.00
2022-08-21T09:40:34.447Z,45.27
2022-08-21T09:43:03.378Z,44.77
2022-08-21T09:45:31.136Z,44.54
2022-08-21T09:48:11.093Z,43.42
2022-08-21T09:50:38.097Z,42.77
2022-08-21T09:53:05.098Z,42.11
2022-08-21T09:55:52.735Z,42.49
2022-08-21T09:58:21.412Z,42.39
2022-08-21T10:00:58.102Z,42.40
2022-08-21T10:03:26.104Z,43.38
2022-08-21T10:05:53.117Z,44.37
2022-08-21T10:08:21.454Z,44.86
2022-08-21T10:10:52.025Z,46.23
2022-08-21T10:13:46.764Z,43.79
2022-08-21T10:16:32.779Z,46.41
2022-08-21T10:19:02.674Z,47.52
2022-08-21T10:22:02.305Z,48.01
2022-08-21T10:24:32.297Z,48.11
2022-08-21T10:26:59.221Z,47.37
2022-08-21T10:29:45.349Z,47.13
2022-08-21T10:32:21.279Z,48.84
2022-08-21T10:35:11.631Z,49.86
2022-08-21T10:37:48.837Z,50.00
2022-08-21T10:40:19.099Z,48.89
2022-08-21T10:42:56.723Z,49.95
2022-08-21T10:45:32.400Z,50.30
2022-08-21T10:48:06.590Z,50.98
2022-08-21T10:50:41.051Z,51.17
2022-08-21T10:53:28.339Z,49.96
2022-08-21T10:56:03.105Z,49.82
2022-08-21T10:58:31.852Z,49.43
2022-08-21T11:01:19.122Z,48.57
2022-08-21T11:03:47.904Z,48.27
2022-08-21T11:06:23.402Z,49.40
2022-08-21T11:08:58.000Z,48.16
2022-08-21T11:11:35.268Z,48.03
2022-08-21T11:14:06.595Z,48.49
2022-08-21T11:16:33.512Z,47.62
2022-08-21T11:19:20.890Z,46.13
2022-08-21T11:21:54.166Z,46.28
2022-08-21T11:24:38.212Z,45.13
2022-08-21T11:27:19.549Z,45.32
2022-08-21T11:29:50.132Z,47.68
2022-08-21T11:32:20.300Z,47.08
2022-08-21T11:34:58.711Z,47.93
2022-08-21T11:37:42.270Z,46.40
2022-08-21T11:40:10.198Z,48.12
2022-08-21T11:42:40.743Z,49.17
2022-08-21T11:45:33.963Z,47.52
2022-08-21T11:48:20.986Z,47.07
2022-08-21T11:50:49.326Z,47.97
2022-08-21T11:53:21.200Z,47.96
2022-08-21T11:55:48.132Z,47.35
2022-08-21T11:58:22.058Z,47.02
2022-08-21T12:00:57.618Z,47.00
2022-08-21T12:03:24.515Z,46.58
2022-08-21T12:06:09.410Z,47.70
2022-08-21T12:08:39.494Z,48.22
2022-08-21T12:11:15.811Z,48.26
2022-08-21T12:13:54.635Z,49.92
2022-08-21T12:16:30.783Z,49.18
2022-08-21T12:19:08.763Z,48.02
2022-08-21T12:21:48.517Z,48.04
2022-08-21T12:24:15.565Z,47.47
2022-08-21T12:26:48.576Z,48.63
2022-08-21T12:29:19.295Z,46.83
2022-08-21T12:31:54.814Z,46.60
2022-08-21T12:34:24.229Z,46.30
2022-08-21T12:36:55.352Z,47.40
2022-08-21T12:39:25.199Z,47.29
2022-08-21T12:42:01.811Z,47.01
2022-08-21T12:44:38.943Z,49.24
2022-08-21T12:47:24.592Z,46.89
2022-08-21T12:49:58.642Z,45.12
2022-08-21T12:52:30.414Z,44.52
2022-08-21T12:54:57.487Z,45.16
2022-08-21T12:57:28.627Z,44.73
2022-08-21T12:59:57.504Z,46.19
2022-08-21T13:02:36.785Z,45.29
2022-08-21T13:05:06.153Z,46.27
2022-08-21T13:07:37.070Z,46.11
2022-08-21T13:10:04.203Z,47.20
2022-08-21T13:12:34.427Z,45.91
2022-08-21T13:15:08.376Z,45.93
2022-08-21T13:17:38.961Z,46.51
2022-08-21T13:20:09.046Z,46.63
2022-08-21T13:22:42.554Z,45.32
2022-08-21T13:25:18.111Z,45.19
2022-08-21T13:27:59.581Z,45.18
2022-08-21T13:30:26.552Z,45.67
2022-08-21T13:32:59.489Z,44.82
2022-08-21T13:35:32.995Z,45.00
2022-08-21T13:38:00.450Z,44.93
2022-08-21T13:40:34.918Z,44.75
2022-08-21T13:43:02.361Z,45.19
2022-08-21T13:45:32.862Z,44.77
2022-08-21T13:48:06.035Z,46.83
2022-08-21T13:50:36.294Z,46.27
2022-08-21T13:53:04.947Z,46.72
2022-08-21T13:55:43.344Z,47.72
2022-08-21T13:58:11.445Z,48.34
2022-08-21T14:00:48.403Z,49.01
2022-08-21T14:03:27.224Z,47.93
2022-08-21T14:05:54.267Z,49.83
2022-08-21T14:08:30.422Z,50.13
2022-08-21T14:10:58.560Z,49.41
2022-08-21T14:13:53.515Z,50.55
2022-08-21T14:16:34.510Z,50.43
2022-08-21T14:19:06.504Z,50.25
2022-08-21T14:21:45.216Z,49.57
2022-08-21T14:24:41.406Z,50.67
2022-08-21T14:27:16.593Z,49.36
2022-08-21T14:29:46.910Z,49.11
2022-08-21T14:32:26.018Z,50.04
2022-08-21T14:34:55.116Z,49.33
2022-08-21T14:37:30.395Z,50.49
2022-08-21T14:40:16.121Z,49.85
2022-08-21T14:42:47.035Z,51.39
2022-08-21T14:45:24.698Z,50.21
2022-08-21T14:47:56.764Z,48.84
2022-08-21T14:50:24.486Z,48.45
2022-08-21T14:52:59.185Z,49.38
2022-08-21T14:55:30.236Z,50.53
2022-08-21T14:58:03.842Z,50.49
2022-08-21T15:00:36.245Z,51.51
2022-08-21T15:03:08.627Z,48.89
2022-08-21T15:05:36.209Z,51.18
2022-08-21T15:08:06.573Z,51.68
2022-08-21T15:10:48.117Z,50.91
2022-08-21T15:13:26.851Z,52.28
2022-08-21T15:15:54.636Z,52.40
2022-08-21T15:18:22.151Z,52.83
2022-08-21T15:20:52.404Z,52.92
2022-08-21T15:23:19.935Z,53.30
2022-08-21T15:25:48.291Z,54.39
2022-08-21T15:28:17.902Z,54.08
2022-08-21T15:30:46.777Z,53.80
2022-08-21T15:33:14.660Z,55.24
2022-08-21T15:35:41.871Z,55.36
2022-08-21T15:38:11.379Z,54.72
2022-08-21T15:40:39.137Z,54.17
2022-08-21T15:43:06.806Z,54.05
2022-08-21T15:45:35.047Z,54.39
2022-08-21T15:48:02.381Z,54.48
2022-08-21T15:50:30.313Z,54.91
2022-08-21T15:52:57.458Z,55.29
2022-08-21T15:55:24.754Z,54.52
2022-08-21T15:57:57.414Z,54.31
2022-08-21T16:00:25.866Z,54.02
2022-08-21T16:02:58.579Z,53.74
2022-08-21T16:05:26.067Z,53.04
2022-08-21T16:07:53.124Z,53.32
2022-08-21T16:10:29.830Z,54.26
2022-08-21T16:13:00.227Z,55.02
2022-08-21T16:15:27.910Z,54.77
2022-08-21T16:17:55.144Z,56.05
2022-08-21T16:20:25.365Z,60.25
2022-08-21T16:22:53.205Z,54.57
2022-08-21T16:25:20.131Z,59.00
2022-08-21T16:27:49.152Z,57.95
2022-08-21T16:30:16.805Z,55.31
2022-08-21T16:32:44.311Z,58.94
2022-08-21T16:35:13.776Z,60.50
2022-08-21T16:37:42.899Z,62.63
2022-08-21T16:40:10.820Z,63.34
2022-08-21T16:42:38.760Z,63.40
2022-08-21T16:45:06.886Z,63.93
2022-08-21T16:47:37.100Z,64.07
2022-08-21T16:50:07.745Z,67.74
2022-08-21T16:52:35.768Z,66.09
2022-08-21T16:55:03.146Z,63.51
2022-08-21T16:57:30.182Z,63.13
2022-08-21T16:59:57.268Z,64.36
2022-08-21T17:02:30.080Z,65.52
2022-08-21T17:04:57.236Z,65.47
2022-08-21T17:07:24.146Z,65.83
2022-08-21T17:09:51.518Z,66.26
2022-08-21T17:12:20.236Z,66.13
2022-08-21T17:14:50.441Z,64.86
2022-08-21T17:17:17.786Z,66.85
2022-08-21T17:19:45.392Z,66.35
2022-08-21T17:22:14.840Z,66.53
2022-08-21T17:24:42.106Z,64.88
2022-08-21T17:27:10.945Z,63.51
2022-08-21T17:29:38.795Z,64.48
2022-08-21T17:32:09.934Z,64.36
2022-08-21T17:34:37.902Z,65.90
2022-08-21T17:37:05.178Z,67.11
2022-08-21T17:39:32.109Z,65.35
2022-08-21T17:42:01.929Z,65.06
2022-08-21T17:44:28.966Z,65.63
2022-08-21T17:46:55.819Z,65.62
2022-08-21T17:49:22.953Z,66.99
2022-08-21T17:51:50.019Z,66.51
2022-08-21T17:54:19.736Z,67.30
2022-08-21T17:56:46.904Z,66.37
2022-08-21T17:59:14.775Z,63.53
2022-08-21T18:01:43.141Z,64.91
2022-08-21T18:04:11.163Z,65.50
2022-08-21T18:06:38.913Z,65.96
2022-08-21T18:09:06.088Z,66.18
2022-08-21T18:11:33.658Z,65.88
2022-08-21T18:14:07.164Z,64.72
2022-08-21T18:16:35.693Z,65.26
2022-08-21T18:19:04.216Z,65.55
2022-08-21T18:21:31.533Z,65.48
2022-08-21T18:23:59.085Z,65.79
2022-08-21T18:26:38.131Z,64.21
2022-08-21T18:29:06.540Z,64.66
2022-08-21T18:31:35.223Z,65.55
2022-08-21T18:34:06.078Z,65.52
2022-08-21T18:36:32.987Z,64.44
2022-08-21T18:39:19.345Z,62.71
2022-08-21T18:41:47.691Z,65.01
2022-08-21T18:44:15.834Z,64.57
2022-08-21T18:46:48.704Z,64.57
2022-08-21T18:49:15.766Z,64.51
2022-08-21T18:51:45.383Z,64.33
2022-08-21T18:54:13.167Z,64.49
2022-08-21T18:56:41.143Z,65.52
2022-08-21T18:59:10.354Z,64.70
2022-08-21T19:01:38.270Z,64.16
2022-08-21T19:04:07.498Z,64.11
2022-08-21T19:06:36.648Z,63.54
2022-08-21T19:09:09.899Z,62.08
2022-08-21T19:11:40.977Z,63.52
2022-08-21T19:14:15.673Z,64.41
2022-08-21T19:19:30.693Z,63.52
2022-08-21T19:21:57.891Z,64.43
2022-08-21T19:24:26.362Z,62.71
2022-08-21T19:26:53.569Z,63.63
2022-08-21T19:29:34.688Z,64.92
2022-08-21T19:32:04.246Z,64.69
2022-08-21T19:34:31.305Z,63.48
2022-08-21T19:36:59.460Z,64.47
2022-08-21T19:39:26.940Z,64.00
2022-08-21T19:41:56.627Z,63.81
2022-08-21T19:44:25.357Z,63.80
2022-08-21T19:46:52.985Z,64.46
2022-08-21T19:49:22.265Z,63.57
2022-08-21T19:54:36.187Z,62.99
2022-08-21T19:57:08.078Z,64.06
2022-08-21T19:59:39.449Z,64.36
2022-08-21T20:02:06.953Z,63.58
2022-08-21T20:04:33.947Z,64.22
2022-08-21T20:07:00.805Z,63.71
2022-08-21T20:09:27.930Z,63.30
2022-08-21T20:11:56.628Z,64.62
2022-08-21T20:14:25.465Z,62.75
2022-08-21T20:16:53.054Z,62.66
2022-08-21T20:19:22.166Z,63.98
2022-08-21T20:21:49.410Z,63.90
2022-08-21T20:24:16.718Z,64.47
2022-08-21T20:29:38.973Z,64.81
2022-08-21T20:32:12.329Z,64.49
2022-08-21T20:34:39.917Z,63.98
2022-08-21T20:37:07.062Z,64.33
2022-08-21T20:39:36.362Z,64.58
2022-08-21T20:42:05.066Z,63.33
2022-08-21T20:44:34.626Z,63.23
2022-08-21T20:47:04.802Z,63.20
2022-08-21T20:49:43.475Z,64.05
2022-08-21T20:52:10.865Z,63.41
2022-08-21T20:54:46.569Z,64.03
2022-08-21T20:57:17.648Z,63.80
2022-08-21T20:59:50.900Z,62.96
2022-08-21T21:02:27.141Z,63.85
2022-08-21T21:05:16.586Z,63.83
2022-08-21T21:08:00.966Z,63.31
2022-08-21T21:13:21.032Z,63.60
2022-08-21T21:15:52.262Z,63.60
2022-08-21T21:18:32.512Z,63.16
2022-08-21T21:21:10.765Z,63.42
2022-08-21T21:23:40.997Z,63.92
2022-08-21T21:26:15.210Z,62.81
2022-08-21T21:29:01.851Z,62.52
2022-08-21T21:31:30.516Z,62.58
2022-08-21T21:33:59.875Z,62.35
2022-08-21T21:36:51.532Z,64.40
2022-08-21T21:39:27.153Z,62.66
2022-08-21T21:42:08.443Z,63.67
2022-08-21T21:44:58.179Z,61.87
2022-08-21T21:47:48.486Z,61.97
2022-08-21T21:50:44.140Z,63.89
2022-08-21T21:53:27.329Z,62.73
2022-08-21T21:56:02.626Z,63.25
2022-08-21T21:58:36.115Z,64.00
2022-08-21T22:01:08.642Z,62.97
2022-08-21T22:03:59.893Z,63.38
2022-08-21T22:06:41.769Z,63.69
2022-08-21T22:09:16.021Z,63.73
2022-08-21T22:11:44.676Z,63.71
2022-08-21T22:14:24.371Z,63.76
2022-08-21T22:16:52.976Z,63.91
2022-08-21T22:19:30.338Z,63.59
2022-08-21T22:22:25.648Z,63.82
2022-08-21T22:24:54.088Z,63.36
2022-08-21T22:27:23.471Z,62.99
2022-08-21T22:29:54.956Z,63.69
2022-08-21T22:32:25.090Z,63.05
2022-08-21T22:35:05.763Z,63.67
2022-08-21T22:37:38.125Z,64.40
2022-08-21T22:40:05.863Z,63.84
2022-08-21T22:42:33.514Z,63.47
2022-08-21T22:45:02.194Z,63.04
2022-08-21T22:47:31.784Z,63.91
2022-08-21T22:50:04.413Z,63.30
2022-08-21T22:52:36.666Z,65.17
2022-08-21T22:55:30.302Z,64.65
2022-08-21T22:58:03.292Z,64.05
2022-08-21T23:00:42.800Z,64.63
2022-08-21T23:03:17.596Z,64.73
2022-08-21T23:05:45.729Z,64.58
2022-08-21T23:08:24.166Z,64.73
2022-08-21T23:10:57.302Z,64.25
2022-08-21T23:13:26.668Z,64.35
2022-08-21T23:16:03.978Z,64.45
2022-08-21T23:18:44.261Z,64.40
2022-08-21T23:21:28.803Z,64.53
2022-08-21T23:24:02.396Z,64.36
2022-08-21T23:26:40.731Z,64.28
2022-08-21T23:29:24.818Z,64.44
2022-08-21T23:32:13.654Z,64.35
2022-08-21T23:34:55.696Z,64.47
2022-08-21T23:37:51.735Z,63.84
2022-08-21T23:40:19.282Z,64.70
2022-08-21T23:42:55.487Z,65.50
2022-08-21T23:45:34.245Z,63.74
2022-08-21T23:48:01.165Z,64.99
2022-08-21T23:50:44.018Z,64.80
2022-08-21T23:53:16.866Z,64.81
2022-08-21T23:55:47.801Z,64.91
2022-08-21T23:58:39.431Z,65.34
